sensor_id;sensor_type;location;lat;lon;timestamp;pressure;altitude;pressure_sealevel;temperature;humidity
28310;BME280;15571;50.974;13.936;2023-08-24T00:02:37;100444.66;;;19.24;100.00
28310;BME280;15571;50.974;13.936;2023-08-24T00:05:41;100448.56;;;19.13;100.00
28310;BME280;15571;50.974;13.936;2023-08-24T00:08:43;100448.97;;;19.03;100.00
28310;BME280;15571;50.974;13.936;2023-08-24T00:11:46;100444.66;;;19.00;100.00
28310;BME280;15571;50.974;13.936;2023-08-24T00:14:48;100443.72;;;19.01;100.00
28310;BME280;15571;50.974;13.936;2023-08-24T00:17:53;100442.94;;;18.99;100.00
28310;BME280;15571;50.974;13.936;2023-08-24T00:20:56;100436.91;;;18.94;100.00
28310;BME280;15571;50.974;13.936;2023-08-24T00:23:58;100442.22;;;18.94;100.00
28310;BME280;15571;50.974;13.936;2023-08-24T00:27:01;100447.94;;;18.81;100.00
28310;BME280;15571;50.974;13.936;2023-08-24T00:30:03;100445.28;;;18.81;100.00
28310;BME280;15571;50.974;13.936;2023-08-24T00:33:07;100447.13;;;18.79;100.00
28310;BME280;15571;50.974;13.936;2023-08-24T00:36:11;100450.13;;;18.70;100.00
28310;BME280;15571;50.974;13.936;2023-08-24T00:39:13;100450.00;;;18.73;100.00
28310;BME280;15571;50.974;13.936;2023-08-24T00:42:16;100450.91;;;18.72;100.00
28310;BME280;15571;50.974;13.936;2023-08-24T00:45:20;100455.75;;;18.61;100.00
28310;BME280;15571;50.974;13.936;2023-08-24T00:48:23;100451.41;;;18.58;100.00
28310;BME280;15571;50.974;13.936;2023-08-24T00:51:30;100451.69;;;18.50;100.00
28310;BME280;15571;50.974;13.936;2023-08-24T00:54:33;100456.28;;;18.45;100.00
28310;BME280;15571;50.974;13.936;2023-08-24T00:57:39;100457.34;;;18.40;100.00
28310;BME280;15571;50.974;13.936;2023-08-24T01:00:41;100459.81;;;18.46;100.00
28310;BME280;15571;50.974;13.936;2023-08-24T01:03:45;100454.44;;;18.47;100.00
28310;BME280;15571;50.974;13.936;2023-08-24T01:06:49;100453.53;;;18.48;100.00
28310;BME280;15571;50.974;13.936;2023-08-24T01:09:51;100454.50;;;18.46;100.00
28310;BME280;15571;50.974;13.936;2023-08-24T01:12:57;100451.13;;;18.41;100.00
28310;BME280;15571;50.974;13.936;2023-08-24T01:16:04;100460.91;;;18.39;100.00
28310;BME280;15571;50.974;13.936;2023-08-24T01:19:16;100455.00;;;18.30;100.00
28310;BME280;15571;50.974;13.936;2023-08-24T01:22:31;100446.22;;;18.30;100.00
28310;BME280;15571;50.974;13.936;2023-08-24T01:25:38;100448.28;;;18.20;100.00
28310;BME280;15571;50.974;13.936;2023-08-24T01:28:43;100447.44;;;18.19;100.00
28310;BME280;15571;50.974;13.936;2023-08-24T01:31:48;100441.31;;;18.17;100.00
28310;BME280;15571;50.974;13.936;2023-08-24T01:34:51;100441.22;;;18.20;100.00
28310;BME280;15571;50.974;13.936;2023-08-24T01:37:53;100442.63;;;18.04;100.00
28310;BME280;15571;50.974;13.936;2023-08-24T01:40:58;100438.06;;;18.09;100.00
28310;BME280;15571;50.974;13.936;2023-08-24T01:44:03;100440.88;;;18.04;100.00
28310;BME280;15571;50.974;13.936;2023-08-24T01:47:06;100448.22;;;17.96;100.00
28310;BME280;15571;50.974;13.936;2023-08-24T01:50:10;100436.81;;;17.93;100.00
28310;BME280;15571;50.974;13.936;2023-08-24T01:53:14;100439.34;;;17.97;100.00
28310;BME280;15571;50.974;13.936;2023-08-24T01:56:17;100433.16;;;17.97;100.00
28310;BME280;15571;50.974;13.936;2023-08-24T01:59:20;100425.44;;;17.89;100.00
28310;BME280;15571;50.974;13.936;2023-08-24T02:02:23;100425.59;;;17.84;100.00
28310;BME280;15571;50.974;13.936;2023-08-24T02:05:25;100428.22;;;17.84;100.00
28310;BME280;15571;50.974;13.936;2023-08-24T02:08:29;100430.19;;;17.79;100.00
28310;BME280;15571;50.974;13.936;2023-08-24T02:11:32;100430.25;;;17.76;100.00
28310;BME280;15571;50.974;13.936;2023-08-24T02:14:37;100437.38;;;17.74;100.00
28310;BME280;15571;50.974;13.936;2023-08-24T02:17:39;100435.56;;;17.76;100.00
28310;BME280;15571;50.974;13.936;2023-08-24T02:20:41;100426.91;;;17.71;100.00
28310;BME280;15571;50.974;13.936;2023-08-24T02:23:46;100430.47;;;17.70;100.00
28310;BME280;15571;50.974;13.936;2023-08-24T02:26:49;100427.91;;;17.67;100.00
28310;BME280;15571;50.974;13.936;2023-08-24T02:29:53;100434.13;;;17.66;100.00
28310;BME280;15571;50.974;13.936;2023-08-24T02:32:58;100439.41;;;17.66;100.00
28310;BME280;15571;50.974;13.936;2023-08-24T02:36:03;100437.66;;;17.66;100.00
28310;BME280;15571;50.974;13.936;2023-08-24T02:39:06;100436.88;;;17.63;100.00
28310;BME280;15571;50.974;13.936;2023-08-24T02:42:13;100430.47;;;17.70;100.00
28310;BME280;15571;50.974;13.936;2023-08-24T02:45:16;100432.34;;;17.66;100.00
28310;BME280;15571;50.974;13.936;2023-08-24T02:48:18;100428.16;;;17.59;100.00
28310;BME280;15571;50.974;13.936;2023-08-24T02:51:21;100423.94;;;17.53;100.00
28310;BME280;15571;50.974;13.936;2023-08-24T02:54:23;100427.22;;;17.60;100.00
28310;BME280;15571;50.974;13.936;2023-08-24T02:57:25;100420.47;;;17.51;100.00
28310;BME280;15571;50.974;13.936;2023-08-24T03:00:29;100419.03;;;17.39;100.00
28310;BME280;15571;50.974;13.936;2023-08-24T03:03:31;100419.09;;;17.38;100.00
28310;BME280;15571;50.974;13.936;2023-08-24T03:06:34;100412.38;;;17.56;100.00
28310;BME280;15571;50.974;13.936;2023-08-24T03:09:36;100415.63;;;17.36;100.00
28310;BME280;15571;50.974;13.936;2023-08-24T03:12:40;100421.88;;;17.33;100.00
28310;BME280;15571;50.974;13.936;2023-08-24T03:15:44;100424.63;;;17.30;100.00
28310;BME280;15571;50.974;13.936;2023-08-24T03:18:46;100439.00;;;17.21;100.00
28310;BME280;15571;50.974;13.936;2023-08-24T03:21:48;100425.63;;;17.26;100.00
28310;BME280;15571;50.974;13.936;2023-08-24T03:24:51;100429.19;;;17.25;100.00
28310;BME280;15571;50.974;13.936;2023-08-24T03:27:54;100422.16;;;17.24;100.00
28310;BME280;15571;50.974;13.936;2023-08-24T03:30:58;100419.47;;;17.25;100.00
28310;BME280;15571;50.974;13.936;2023-08-24T03:34:01;100414.94;;;17.29;100.00
28310;BME280;15571;50.974;13.936;2023-08-24T03:37:04;100408.81;;;17.29;100.00
28310;BME280;15571;50.974;13.936;2023-08-24T03:40:07;100408.88;;;17.25;100.00
28310;BME280;15571;50.974;13.936;2023-08-24T03:43:09;100413.91;;;17.35;100.00
28310;BME280;15571;50.974;13.936;2023-08-24T03:46:13;100418.94;;;17.14;100.00
28310;BME280;15571;50.974;13.936;2023-08-24T03:49:17;100412.00;;;17.10;100.00
28310;BME280;15571;50.974;13.936;2023-08-24T03:52:20;100412.91;;;17.09;100.00
28310;BME280;15571;50.974;13.936;2023-08-24T03:55:23;100419.09;;;17.08;100.00
28310;BME280;15571;50.974;13.936;2023-08-24T03:58:26;100410.31;;;17.07;100.00
28310;BME280;15571;50.974;13.936;2023-08-24T04:01:29;100411.31;;;17.03;100.00
28310;BME280;15571;50.974;13.936;2023-08-24T04:04:31;100405.97;;;17.05;100.00
28310;BME280;15571;50.974;13.936;2023-08-24T04:07:34;100409.56;;;17.04;100.00
28310;BME280;15571;50.974;13.936;2023-08-24T04:10:37;100421.13;;;17.00;100.00
28310;BME280;15571;50.974;13.936;2023-08-24T04:13:39;100419.38;;;16.99;100.00
28310;BME280;15571;50.974;13.936;2023-08-24T04:16:42;100417.69;;;16.96;100.00
28310;BME280;15571;50.974;13.936;2023-08-24T04:19:44;100414.03;;;17.00;100.00
28310;BME280;15571;50.974;13.936;2023-08-24T04:22:46;100407.91;;;17.00;100.00
28310;BME280;15571;50.974;13.936;2023-08-24T04:25:48;100414.16;;;16.95;100.00
28310;BME280;15571;50.974;13.936;2023-08-24T04:28:50;100413.19;;;17.00;100.00
28310;BME280;15571;50.974;13.936;2023-08-24T04:31:54;100418.25;;;17.07;100.00
28310;BME280;15571;50.974;13.936;2023-08-24T04:34:56;100417.50;;;17.02;100.00
28310;BME280;15571;50.974;13.936;2023-08-24T04:37:58;100422.03;;;16.99;100.00
28310;BME280;15571;50.974;13.936;2023-08-24T04:41:00;100411.38;;;17.02;100.00
28310;BME280;15571;50.974;13.936;2023-08-24T04:44:03;100413.09;;;17.03;100.00
28310;BME280;15571;50.974;13.936;2023-08-24T04:47:07;100422.78;;;17.04;100.00
28310;BME280;15571;50.974;13.936;2023-08-24T04:50:09;100413.09;;;17.03;100.00
28310;BME280;15571;50.974;13.936;2023-08-24T04:53:11;100421.84;;;17.05;100.00
28310;BME280;15571;50.974;13.936;2023-08-24T04:56:14;100416.47;;;17.08;100.00
28310;BME280;15571;50.974;13.936;2023-08-24T04:59:19;100412.72;;;17.15;100.00
28310;BME280;15571;50.974;13.936;2023-08-24T05:02:23;100412.63;;;17.18;100.00
28310;BME280;15571;50.974;13.936;2023-08-24T05:05:25;100416.94;;;17.22;100.00
28310;BME280;15571;50.974;13.936;2023-08-24T05:08:27;100417.72;;;17.24;100.00
28310;BME280;15571;50.974;13.936;2023-08-24T05:11:29;100421.31;;;17.23;100.00
28310;BME280;15571;50.974;13.936;2023-08-24T05:14:31;100426.41;;;17.30;100.00
28310;BME280;15571;50.974;13.936;2023-08-24T05:17:35;100421.13;;;17.30;100.00
28310;BME280;15571;50.974;13.936;2023-08-24T05:20:37;100421.59;;;17.42;100.00
28310;BME280;15571;50.974;13.936;2023-08-24T05:23:39;100415.78;;;17.31;100.00
28310;BME280;15571;50.974;13.936;2023-08-24T05:26:41;100419.09;;;17.38;100.00
28310;BME280;15571;50.974;13.936;2023-08-24T05:29:43;100418.75;;;17.49;100.00
28310;BME280;15571;50.974;13.936;2023-08-24T05:32:47;100420.06;;;17.64;100.00
28310;BME280;15571;50.974;13.936;2023-08-24T05:35:49;100418.22;;;17.66;100.00
28310;BME280;15571;50.974;13.936;2023-08-24T05:38:51;100424.34;;;17.68;100.00
28310;BME280;15571;50.974;13.936;2023-08-24T05:41:57;100417.28;;;17.97;100.00
28310;BME280;15571;50.974;13.936;2023-08-24T05:44:59;100415.63;;;17.93;100.00
28310;BME280;15571;50.974;13.936;2023-08-24T05:48:06;100413.50;;;18.04;100.00
28310;BME280;15571;50.974;13.936;2023-08-24T05:51:08;100411.66;;;18.06;100.00
28310;BME280;15571;50.974;13.936;2023-08-24T05:54:12;100405.06;;;18.19;100.00
28310;BME280;15571;50.974;13.936;2023-08-24T05:57:19;100401.25;;;18.27;100.00
28310;BME280;15571;50.974;13.936;2023-08-24T06:00:21;100406.25;;;18.36;100.00
28310;BME280;15571;50.974;13.936;2023-08-24T06:03:25;100396.22;;;18.44;100.00
28310;BME280;15571;50.974;13.936;2023-08-24T06:06:27;100393.97;;;18.59;100.00
28310;BME280;15571;50.974;13.936;2023-08-24T06:09:29;100393.63;;;18.68;100.00
28310;BME280;15571;50.974;13.936;2023-08-24T06:12:32;100395.28;;;18.71;100.00
28310;BME280;15571;50.974;13.936;2023-08-24T06:15:34;100394.78;;;18.85;100.00
28310;BME280;15571;50.974;13.936;2023-08-24T06:18:38;100398.16;;;18.90;100.00
28310;BME280;15571;50.974;13.936;2023-08-24T06:21:40;100383.75;;;18.97;100.00
28310;BME280;15571;50.974;13.936;2023-08-24T06:24:42;100379.09;;;19.26;100.00
28310;BME280;15571;50.974;13.936;2023-08-24T06:27:44;100387.13;;;19.24;100.00
28310;BME280;15571;50.974;13.936;2023-08-24T06:30:46;100388.91;;;19.24;100.00
28310;BME280;15571;50.974;13.936;2023-08-24T06:33:50;100380.56;;;19.35;100.00
28310;BME280;15571;50.974;13.936;2023-08-24T06:36:53;100378.88;;;19.54;100.00
28310;BME280;15571;50.974;13.936;2023-08-24T06:39:56;100379.03;;;19.50;100.00
28310;BME280;15571;50.974;13.936;2023-08-24T06:42:58;100371.50;;;19.61;100.00
28310;BME280;15571;50.974;13.936;2023-08-24T06:46:01;100372.06;;;19.69;100.00
28310;BME280;15571;50.974;13.936;2023-08-24T06:49:04;100375.28;;;19.78;100.00
28310;BME280;15571;50.974;13.936;2023-08-24T06:52:06;100375.84;;;19.86;100.00
28310;BME280;15571;50.974;13.936;2023-08-24T06:55:08;100371.09;;;19.94;100.00
28310;BME280;15571;50.974;13.936;2023-08-24T06:58:11;100374.00;;;20.09;100.00
28310;BME280;15571;50.974;13.936;2023-08-24T07:01:13;100370.41;;;20.10;100.00
28310;BME280;15571;50.974;13.936;2023-08-24T07:04:17;100377.66;;;20.27;100.00
28310;BME280;15571;50.974;13.936;2023-08-24T07:07:20;100375.91;;;20.27;100.00
28310;BME280;15571;50.974;13.936;2023-08-24T07:10:22;100375.53;;;20.35;100.00
28310;BME280;15571;50.974;13.936;2023-08-24T07:13:24;100374.00;;;20.50;100.00
28310;BME280;15571;50.974;13.936;2023-08-24T07:16:27;100368.41;;;20.56;100.00
28310;BME280;15571;50.974;13.936;2023-08-24T07:19:30;100366.13;;;20.67;100.00
28310;BME280;15571;50.974;13.936;2023-08-24T07:22:32;100373.03;;;20.72;100.00
28310;BME280;15571;50.974;13.936;2023-08-24T07:25:34;100374.66;;;20.76;100.00
28310;BME280;15571;50.974;13.936;2023-08-24T07:28:36;100368.03;;;20.84;100.00
28310;BME280;15571;50.974;13.936;2023-08-24T07:31:38;100361.56;;;20.90;100.00
28310;BME280;15571;50.974;13.936;2023-08-24T07:34:41;100357.69;;;20.97;100.00
28310;BME280;15571;50.974;13.936;2023-08-24T07:37:43;100361.72;;;21.06;100.00
28310;BME280;15571;50.974;13.936;2023-08-24T07:40:45;100362.78;;;21.21;100.00
28310;BME280;15571;50.974;13.936;2023-08-24T07:43:47;100359.91;;;21.26;100.00
28310;BME280;15571;50.974;13.936;2023-08-24T07:46:50;100348.72;;;21.56;100.00
28310;BME280;15571;50.974;13.936;2023-08-24T07:49:55;100345.56;;;21.48;100.00
28310;BME280;15571;50.974;13.936;2023-08-24T07:52:57;100346.41;;;21.48;100.00
28310;BME280;15571;50.974;13.936;2023-08-24T07:56:03;100343.75;;;21.48;100.00
28310;BME280;15571;50.974;13.936;2023-08-24T07:59:09;100352.22;;;21.56;100.00
28310;BME280;15571;50.974;13.936;2023-08-24T08:02:11;100347.56;;;21.61;100.00
28310;BME280;15571;50.974;13.936;2023-08-24T08:05:17;100355.44;;;21.65;100.00
28310;BME280;15571;50.974;13.936;2023-08-24T08:08:19;100356.03;;;21.70;100.00
28310;BME280;15571;50.974;13.936;2023-08-24T08:11:21;100354.41;;;21.85;100.00
28310;BME280;15571;50.974;13.936;2023-08-24T08:14:23;100344.78;;;22.00;100.00
28310;BME280;15571;50.974;13.936;2023-08-24T08:17:25;100335.97;;;22.15;100.00
28310;BME280;15571;50.974;13.936;2023-08-24T08:20:30;100338.34;;;22.21;100.00
28310;BME280;15571;50.974;13.936;2023-08-24T08:23:34;100340.38;;;22.16;100.00
28310;BME280;15571;50.974;13.936;2023-08-24T08:26:37;100341.31;;;22.15;100.00
28310;BME280;15571;50.974;13.936;2023-08-24T08:29:39;100350.00;;;22.36;100.00
28310;BME280;15571;50.974;13.936;2023-08-24T08:32:41;100344.13;;;22.30;100.00
28310;BME280;15571;50.974;13.936;2023-08-24T08:35:45;100336.56;;;22.38;100.00
28310;BME280;15571;50.974;13.936;2023-08-24T08:38:47;100329.06;;;22.46;100.00
28310;BME280;15571;50.974;13.936;2023-08-24T08:41:51;100324.50;;;22.48;100.00
28310;BME280;15571;50.974;13.936;2023-08-24T08:44:54;100323.31;;;22.54;100.00
28310;BME280;15571;50.974;13.936;2023-08-24T08:47:57;100311.88;;;22.68;100.00
28310;BME280;15571;50.974;13.936;2023-08-24T08:51:02;100316.09;;;22.88;100.00
28310;BME280;15571;50.974;13.936;2023-08-24T08:54:05;100313.19;;;23.09;100.00
28310;BME280;15571;50.974;13.936;2023-08-24T08:57:08;100306.75;;;22.97;100.00
28310;BME280;15571;50.974;13.936;2023-08-24T09:00:14;100308.53;;;23.12;100.00
28310;BME280;15571;50.974;13.936;2023-08-24T09:03:21;100309.31;;;23.14;100.00
28310;BME280;15571;50.974;13.936;2023-08-24T09:06:24;100309.16;;;23.17;100.00
28310;BME280;15571;50.974;13.936;2023-08-24T09:09:26;100294.72;;;23.22;100.00
28310;BME280;15571;50.974;13.936;2023-08-24T09:12:30;100293.44;;;23.43;100.00
28310;BME280;15571;50.974;13.936;2023-08-24T09:15:36;100294.63;;;23.54;100.00
28310;BME280;15571;50.974;13.936;2023-08-24T09:18:39;100286.88;;;23.49;100.00
28310;BME280;15571;50.974;13.936;2023-08-24T09:21:42;100282.69;;;23.75;100.00
28310;BME280;15571;50.974;13.936;2023-08-24T09:24:44;100263.31;;;23.86;100.00
28310;BME280;15571;50.974;13.936;2023-08-24T09:27:47;100265.22;;;24.29;100.00
28310;BME280;15571;50.974;13.936;2023-08-24T09:30:59;100261.84;;;24.11;100.00
28310;BME280;15571;50.974;13.936;2023-08-24T09:34:01;100251.06;;;24.13;100.00
28310;BME280;15571;50.974;13.936;2023-08-24T09:37:05;100250.31;;;24.25;100.00
28310;BME280;15571;50.974;13.936;2023-08-24T09:40:13;100249.13;;;24.58;100.00
28310;BME280;15571;50.974;13.936;2023-08-24T09:43:19;100243.97;;;24.55;100.00
28310;BME280;15571;50.974;13.936;2023-08-24T09:46:23;100246.19;;;24.48;100.00
28310;BME280;15571;50.974;13.936;2023-08-24T09:49:26;100239.88;;;24.49;100.00
28310;BME280;15571;50.974;13.936;2023-08-24T09:52:31;100233.44;;;24.52;100.00
28310;BME280;15571;50.974;13.936;2023-08-24T09:55:37;100232.03;;;24.61;100.00
28310;BME280;15571;50.974;13.936;2023-08-24T09:58:40;100229.03;;;24.65;100.00
28310;BME280;15571;50.974;13.936;2023-08-24T10:01:44;100222.09;;;24.90;100.00
28310;BME280;15571;50.974;13.936;2023-08-24T10:04:47;100215.34;;;25.12;98.73
28310;BME280;15571;50.974;13.936;2023-08-24T10:07:53;100205.72;;;25.22;98.73
28310;BME280;15571;50.974;13.936;2023-08-24T10:10:56;100191.88;;;25.43;100.00
28310;BME280;15571;50.974;13.936;2023-08-24T10:14:04;100190.41;;;25.64;100.00
28310;BME280;15571;50.974;13.936;2023-08-24T10:17:08;100201.56;;;25.71;100.00
28310;BME280;15571;50.974;13.936;2023-08-24T10:20:11;100195.09;;;25.87;98.09
28310;BME280;15571;50.974;13.936;2023-08-24T10:23:15;100193.94;;;26.04;96.05
28310;BME280;15571;50.974;13.936;2023-08-24T10:26:17;100198.66;;;26.13;90.03
28310;BME280;15571;50.974;13.936;2023-08-24T10:29:21;100194.66;;;26.32;91.11
28310;BME280;15571;50.974;13.936;2023-08-24T10:32:23;100188.25;;;26.59;90.93
28310;BME280;15571;50.974;13.936;2023-08-24T10:35:26;100194.34;;;26.61;95.81
28310;BME280;15571;50.974;13.936;2023-08-24T10:38:29;100197.31;;;26.69;95.42
28310;BME280;15571;50.974;13.936;2023-08-24T10:41:45;100200.00;;;26.69;87.46
28310;BME280;15571;50.974;13.936;2023-08-24T10:44:48;100188.94;;;26.73;86.26
28310;BME280;15571;50.974;13.936;2023-08-24T10:47:51;100183.66;;;26.85;90.34
28310;BME280;15571;50.974;13.936;2023-08-24T10:54:16;100175.44;;;27.11;91.74
28310;BME280;15571;50.974;13.936;2023-08-24T10:57:19;100177.56;;;27.18;91.75
28310;BME280;15571;50.974;13.936;2023-08-24T11:00:23;100167.22;;;27.25;94.52
28310;BME280;15571;50.974;13.936;2023-08-24T11:03:33;100156.59;;;27.35;87.85
28310;BME280;15571;50.974;13.936;2023-08-24T11:06:50;100159.63;;;27.66;80.43
28310;BME280;15571;50.974;13.936;2023-08-24T11:09:53;100162.53;;;27.63;82.27
28310;BME280;15571;50.974;13.936;2023-08-24T11:13:05;100165.22;;;27.63;82.87
28310;BME280;15571;50.974;13.936;2023-08-24T11:16:07;100152.25;;;27.45;84.77
28310;BME280;15571;50.974;13.936;2023-08-24T11:19:29;100151.22;;;27.35;84.32
28310;BME280;15571;50.974;13.936;2023-08-24T11:22:32;100144.59;;;27.28;85.92
28310;BME280;15571;50.974;13.936;2023-08-24T11:25:36;100154.56;;;27.50;85.52
28310;BME280;15571;50.974;13.936;2023-08-24T11:28:38;100147.16;;;27.65;84.77
28310;BME280;15571;50.974;13.936;2023-08-24T11:31:41;100144.97;;;27.82;83.65
28310;BME280;15571;50.974;13.936;2023-08-24T11:34:43;100137.63;;;27.95;84.71
28310;BME280;15571;50.974;13.936;2023-08-24T11:37:50;100123.69;;;27.90;83.60
28310;BME280;15571;50.974;13.936;2023-08-24T11:40:53;100119.75;;;27.94;82.76
28310;BME280;15571;50.974;13.936;2023-08-24T11:43:59;100124.44;;;27.80;83.29
28310;BME280;15571;50.974;13.936;2023-08-24T11:47:02;100121.72;;;27.69;88.21
28310;BME280;15571;50.974;13.936;2023-08-24T11:50:07;100101.44;;;27.88;86.66
28310;BME280;15571;50.974;13.936;2023-08-24T11:53:09;100083.84;;;27.72;89.00
28310;BME280;15571;50.974;13.936;2023-08-24T11:56:13;100078.84;;;27.56;86.30
28310;BME280;15571;50.974;13.936;2023-08-24T11:59:17;100069.91;;;27.67;89.26
28310;BME280;15571;50.974;13.936;2023-08-24T12:02:19;100054.16;;;27.74;89.96
28310;BME280;15571;50.974;13.936;2023-08-24T12:05:22;100041.03;;;27.92;88.01
28310;BME280;15571;50.974;13.936;2023-08-24T12:08:24;100038.38;;;27.80;92.63
28310;BME280;15571;50.974;13.936;2023-08-24T12:11:28;100024.16;;;28.01;90.92
28310;BME280;15571;50.974;13.936;2023-08-24T12:14:39;100022.16;;;28.03;93.38
28310;BME280;15571;50.974;13.936;2023-08-24T12:17:46;100031.94;;;28.04;94.29
28310;BME280;15571;50.974;13.936;2023-08-24T12:20:49;100021.69;;;28.21;91.56
28310;BME280;15571;50.974;13.936;2023-08-24T12:23:56;100015.78;;;28.27;93.49
28310;BME280;15571;50.974;13.936;2023-08-24T12:27:01;100008.69;;;28.26;93.28
28310;BME280;15571;50.974;13.936;2023-08-24T12:30:06;100005.00;;;28.27;93.23
28310;BME280;15571;50.974;13.936;2023-08-24T12:33:20;100012.50;;;28.23;94.02
28310;BME280;15571;50.974;13.936;2023-08-24T12:36:22;100015.78;;;28.27;94.03
28310;BME280;15571;50.974;13.936;2023-08-24T12:39:25;100028.47;;;28.36;91.65
28310;BME280;15571;50.974;13.936;2023-08-24T12:42:29;100027.00;;;28.32;93.46
28310;BME280;15571;50.974;13.936;2023-08-24T12:45:32;100027.28;;;28.29;97.08
28310;BME280;15571;50.974;13.936;2023-08-24T12:48:34;100030.94;;;28.28;95.96
28310;BME280;15571;50.974;13.936;2023-08-24T12:51:40;100034.22;;;28.32;96.24
28310;BME280;15571;50.974;13.936;2023-08-24T12:54:42;100019.97;;;28.20;96.30
28310;BME280;15571;50.974;13.936;2023-08-24T12:57:47;100019.00;;;28.21;94.95
28310;BME280;15571;50.974;13.936;2023-08-24T13:00:49;100020.00;;;28.08;99.66
28310;BME280;15571;50.974;13.936;2023-08-24T13:03:53;100023.44;;;28.10;100.00
28310;BME280;15571;50.974;13.936;2023-08-24T13:06:57;100024.00;;;28.25;100.00
28310;BME280;15571;50.974;13.936;2023-08-24T13:09:59;100033.25;;;28.33;100.00
28310;BME280;15571;50.974;13.936;2023-08-24T13:13:03;100029.38;;;28.25;100.00
28310;BME280;15571;50.974;13.936;2023-08-24T13:16:05;100016.34;;;28.09;100.00
28310;BME280;15571;50.974;13.936;2023-08-24T13:19:08;100009.69;;;28.02;100.00
28310;BME280;15571;50.974;13.936;2023-08-24T13:22:10;99998.25;;;27.89;100.00
28310;BME280;15571;50.974;13.936;2023-08-24T13:25:11;99994.88;;;27.64;100.00
28310;BME280;15571;50.974;13.936;2023-08-24T13:28:15;99982.78;;;27.58;100.00
28310;BME280;15571;50.974;13.936;2023-08-24T13:31:17;99973.38;;;27.41;100.00
28310;BME280;15571;50.974;13.936;2023-08-24T13:34:19;99969.94;;;27.28;100.00
28310;BME280;15571;50.974;13.936;2023-08-24T13:37:21;99956.50;;;27.28;100.00
28310;BME280;15571;50.974;13.936;2023-08-24T13:40:23;99954.44;;;27.20;100.00
28310;BME280;15571;50.974;13.936;2023-08-24T13:43:27;99945.03;;;27.37;100.00
28310;BME280;15571;50.974;13.936;2023-08-24T13:46:29;99950.41;;;27.37;100.00
28310;BME280;15571;50.974;13.936;2023-08-24T13:49:31;99951.50;;;27.34;100.00
28310;BME280;15571;50.974;13.936;2023-08-24T13:52:33;99943.06;;;27.39;100.00
28310;BME280;15571;50.974;13.936;2023-08-24T13:55:35;99930.34;;;27.64;100.00
28310;BME280;15571;50.974;13.936;2023-08-24T13:58:40;99929.84;;;27.70;100.00
28310;BME280;15571;50.974;13.936;2023-08-24T14:01:42;99928.88;;;27.71;100.00
28310;BME280;15571;50.974;13.936;2023-08-24T14:04:44;99926.63;;;27.88;100.00
28310;BME280;15571;50.974;13.936;2023-08-24T14:07:46;99936.78;;;27.84;100.00
28310;BME280;15571;50.974;13.936;2023-08-24T14:10:49;99930.09;;;27.67;100.00
28310;BME280;15571;50.974;13.936;2023-08-24T14:13:52;99923.53;;;27.60;100.00
28310;BME280;15571;50.974;13.936;2023-08-24T14:16:54;99925.81;;;27.76;100.00
28310;BME280;15571;50.974;13.936;2023-08-24T14:19:57;99918.16;;;27.60;100.00
28310;BME280;15571;50.974;13.936;2023-08-24T14:22:59;99916.94;;;27.53;100.00
28310;BME280;15571;50.974;13.936;2023-08-24T14:26:02;99915.31;;;27.94;100.00
28310;BME280;15571;50.974;13.936;2023-08-24T14:29:06;99918.75;;;28.07;99.67
28310;BME280;15571;50.974;13.936;2023-08-24T14:32:09;99908.47;;;28.01;100.00
28310;BME280;15571;50.974;13.936;2023-08-24T14:35:11;99899.13;;;28.17;100.00
28310;BME280;15571;50.974;13.936;2023-08-24T14:38:14;99911.16;;;28.01;100.00
28310;BME280;15571;50.974;13.936;2023-08-24T14:41:18;99896.69;;;28.02;100.00
28310;BME280;15571;50.974;13.936;2023-08-24T14:44:22;99899.69;;;27.99;100.00
28310;BME280;15571;50.974;13.936;2023-08-24T14:47:24;99890.06;;;28.18;100.00
28310;BME280;15571;50.974;13.936;2023-08-24T14:50:26;99887.72;;;28.24;99.62
28310;BME280;15571;50.974;13.936;2023-08-24T14:53:28;99882.66;;;28.52;96.74
28310;BME280;15571;50.974;13.936;2023-08-24T14:56:31;99877.06;;;28.23;100.00
28310;BME280;15571;50.974;13.936;2023-08-24T14:59:34;99877.88;;;28.35;98.38
28310;BME280;15571;50.974;13.936;2023-08-24T15:02:38;99870.63;;;28.35;96.80
28310;BME280;15571;50.974;13.936;2023-08-24T15:05:42;99868.75;;;28.26;99.02
28310;BME280;15571;50.974;13.936;2023-08-24T15:08:45;99871.00;;;28.52;95.23
28310;BME280;15571;50.974;13.936;2023-08-24T15:11:48;99869.69;;;28.67;93.11
28310;BME280;15571;50.974;13.936;2023-08-24T15:15:10;99863.22;;;28.49;95.75
28310;BME280;15571;50.974;13.936;2023-08-24T15:18:14;99862.50;;;28.47;93.97
28310;BME280;15571;50.974;13.936;2023-08-24T15:21:16;99862.38;;;28.27;99.16
28310;BME280;15571;50.974;13.936;2023-08-24T15:24:18;99869.94;;;28.12;100.00
28310;BME280;15571;50.974;13.936;2023-08-24T15:27:20;99866.13;;;28.36;91.02
28310;BME280;15571;50.974;13.936;2023-08-24T15:30:24;99857.19;;;28.14;96.64
28310;BME280;15571;50.974;13.936;2023-08-24T15:33:26;99867.38;;;28.10;96.47
28310;BME280;15571;50.974;13.936;2023-08-24T15:36:28;99869.19;;;28.10;96.40
28310;BME280;15571;50.974;13.936;2023-08-24T15:39:32;99868.34;;;28.09;95.21
28310;BME280;15571;50.974;13.936;2023-08-24T15:42:37;99867.72;;;28.06;97.96